Time;durP1;ratioP1;P1;durP2;ratioP2;P2;SDS_P1;SDS_P2;PMS_P1;PMS_P2;Temp;Humidity;BMP_temperature;BMP_pressure;BME280_temperature;BME280_humidity;BME280_pressure;Samples;Min_cycle;Max_cycle;Signal;HPM_P1;HPM_P2
2023/12/01 00:01:28;;;;;;;;;;;;;;;0.30;100.00;100381.13;5000257;28;20568;-61
2023/12/01 00:03:53;;;;;;;;;;;;;;;0.30;100.00;100386.34;4997672;28;20453;-61
2023/12/01 00:06:19;;;;;;;;;;;;;;;0.30;100.00;100388.94;4997469;28;19928;-61
2023/12/01 00:08:44;;;;;;;;;;;;;;;0.22;100.00;100388.69;4998698;28;19921;-61
2023/12/01 00:11:09;;;;;;;;;;;;;;;0.20;100.00;100390.56;4999055;28;20634;-61
2023/12/01 00:13:34;;;;;;;;;;;;;;;0.18;100.00;100395.06;5001457;28;19917;-62
2023/12/01 00:15:59;;;;;;;;;;;;;;;0.18;100.00;100400.31;4987474;28;19926;-62
2023/12/01 00:18:25;;;;;;;;;;;;;;;0.19;100.00;100390.69;5001924;28;19917;-62
2023/12/01 00:20:50;;;;;;;;;;;;;;;0.22;100.00;100396.50;4992270;28;19987;-62
2023/12/01 00:23:15;;;;;;;;;;;;;;;0.22;100.00;100387.84;4995202;28;19928;-61
2023/12/01 00:25:41;;;;;;;;;;;;;;;0.24;100.00;100388.56;4989792;28;19917;-62
2023/12/01 00:28:06;;;;;;;;;;;;;;;0.22;100.00;100390.44;4993329;28;20434;-62
2023/12/01 00:30:31;;;;;;;;;;;;;;;0.21;100.00;100389.63;4995722;28;19923;-61
2023/12/01 00:32:56;;;;;;;;;;;;;;;0.23;100.00;100390.34;5000518;28;20383;-62
2023/12/01 00:35:22;;;;;;;;;;;;;;;0.21;100.00;100392.22;4997493;28;19965;-61
2023/12/01 00:37:47;;;;;;;;;;;;;;;0.20;100.00;100395.78;4995785;28;20051;-61
2023/12/01 00:40:12;;;;;;;;;;;;;;;0.20;100.00;100395.78;4998912;28;20008;-62
2023/12/01 00:42:37;;;;;;;;;;;;;;;0.20;100.00;100403.63;4999465;28;19913;-61
2023/12/01 00:45:03;;;;;;;;;;;;;;;0.18;100.00;100402.91;4994373;28;19925;-62
2023/12/01 00:47:28;;;;;;;;;;;;;;;0.17;100.00;100403.03;5000186;28;19921;-61
2023/12/01 00:49:53;;;;;;;;;;;;;;;0.14;100.00;100404.09;4996299;28;19917;-61
2023/12/01 00:52:18;;;;;;;;;;;;;;;0.13;100.00;100410.25;4998369;28;20012;-61
2023/12/01 00:54:44;;;;;;;;;;;;;;;0.13;100.00;100409.44;4993556;28;19924;-62
2023/12/01 00:57:09;;;;;;;;;;;;;;;0.12;100.00;100413.81;4992827;28;19918;-61
2023/12/01 00:59:34;;;;;;;;;;;;;;;0.10;100.00;100415.72;4996037;28;20291;-61
2023/12/01 01:02:00;;;;;;;;;;;;;;;0.11;100.00;100424.38;4994111;28;19917;-63
2023/12/01 01:04:25;;;;;;;;;;;;;;;0.10;100.00;100430.53;4994523;28;19918;-62
2023/12/01 01:06:50;;;;;;;;;;;;;;;0.07;100.00;100428.16;5003081;28;20001;-61
2023/12/01 01:09:15;;;;;;;;;;;;;;;0.05;100.00;100425.66;4998062;28;19916;-61
2023/12/01 01:11:40;;;;;;;;;;;;;;;0.03;100.00;100432.78;4997459;28;19928;-61
2023/12/01 01:14:06;;;;;;;;;;;;;;;0.02;100.00;100430.28;4998019;28;19925;-61
2023/12/01 01:16:31;;;;;;;;;;;;;;;-0.02;100.00;100433.09;5000518;28;20702;-62
2023/12/01 01:18:56;;;;;;;;;;;;;;;-0.01;100.00;100433.94;4996866;28;19922;-61
2023/12/01 01:21:23;;;;;;;;;;;;;;;0.00;100.00;100438.25;4990634;28;19922;-61
2023/12/01 01:23:48;;;;;;;;;;;;;;;0.00;100.00;100435.63;4996229;28;20009;-62
2023/12/01 01:26:13;;;;;;;;;;;;;;;0.02;100.00;100438.94;4999156;28;19917;-62
2023/12/01 01:28:39;;;;;;;;;;;;;;;0.03;100.00;100435.41;4991377;28;20454;-61
2023/12/01 01:31:05;;;;;;;;;;;;;;;0.05;100.00;100441.34;4987946;28;20389;-61
2023/12/01 01:33:31;;;;;;;;;;;;;;;0.06;100.00;100436.94;4996908;28;19917;-61
2023/12/01 01:35:56;;;;;;;;;;;;;;;0.07;100.00;100444.66;4989391;28;19920;-62
2023/12/01 01:38:21;;;;;;;;;;;;;;;0.08;100.00;100438.50;4994103;28;20016;-62
2023/12/01 01:40:47;;;;;;;;;;;;;;;0.10;100.00;100444.44;4997498;28;19925;-62
2023/12/01 01:43:19;;;;;;;;;;;;;;;0.10;100.00;100444.44;4996369;28;19984;-61
2023/12/01 01:45:44;;;;;;;;;;;;;;;0.10;100.00;100443.59;4993390;28;20618;-61
2023/12/01 01:48:10;;;;;;;;;;;;;;;0.08;100.00;100443.72;4993688;28;19917;-62
2023/12/01 01:50:35;;;;;;;;;;;;;;;0.09;100.00;100440.16;4994557;28;19968;-61
2023/12/01 01:53:01;;;;;;;;;;;;;;;0.10;100.00;100448.81;4996071;28;19918;-62
2023/12/01 01:55:26;;;;;;;;;;;;;;;0.11;100.00;100453.09;4992867;28;19918;-62
2023/12/01 01:57:53;;;;;;;;;;;;;;;0.10;100.00;100447.03;4994353;28;20018;-61
2023/12/01 02:00:20;;;;;;;;;;;;;;;0.10;100.00;100449.66;4993919;28;19920;-62
2023/12/01 02:02:46;;;;;;;;;;;;;;;0.10;100.00;100451.44;4991521;28;20310;-62
2023/12/01 02:05:14;;;;;;;;;;;;;;;0.08;100.00;100446.31;4996235;28;20318;-62
2023/12/01 02:07:41;;;;;;;;;;;;;;;0.10;100.00;100456.66;4990449;28;19925;-62
2023/12/01 02:10:06;;;;;;;;;;;;;;;0.10;100.00;100452.25;4994137;28;19971;-62
2023/12/01 02:12:32;;;;;;;;;;;;;;;0.10;100.00;100461.88;4998590;28;20539;-62
2023/12/01 02:14:57;;;;;;;;;;;;;;;0.10;100.00;100460.09;5001784;28;20378;-62
2023/12/01 02:17:22;;;;;;;;;;;;;;;0.12;100.00;100455.59;4999989;28;20294;-62
2023/12/01 02:19:51;;;;;;;;;;;;;;;0.13;100.00;100462.47;5001980;28;20402;-62
2023/12/01 02:22:16;;;;;;;;;;;;;;;0.15;100.00;100464.97;4999612;28;19921;-61
2023/12/01 02:24:41;;;;;;;;;;;;;;;0.13;100.00;100467.69;4999127;28;19971;-62
2023/12/01 02:27:06;;;;;;;;;;;;;;;0.10;100.00;100473.16;4999395;28;19925;-61
2023/12/01 02:29:32;;;;;;;;;;;;;;;0.09;100.00;100468.88;4994807;28;19979;-62
2023/12/01 02:31:58;;;;;;;;;;;;;;;0.05;100.00;100464.81;4997585;28;19924;-61
2023/12/01 02:34:23;;;;;;;;;;;;;;;0.03;100.00;100469.34;5001375;28;19924;-62
2023/12/01 02:36:48;;;;;;;;;;;;;;;0.01;100.00;100471.22;4993312;28;19933;-61
2023/12/01 02:39:13;;;;;;;;;;;;;;;-0.01;100.00;100470.47;4995601;28;19931;-62
2023/12/01 02:41:39;;;;;;;;;;;;;;;-0.03;100.00;100469.75;5000343;28;19924;-62
2023/12/01 02:44:04;;;;;;;;;;;;;;;-0.05;100.00;100474.25;5000272;28;20489;-61
2023/12/01 02:46:29;;;;;;;;;;;;;;;-0.05;100.00;100469.03;5003125;28;20445;-62
2023/12/01 02:48:54;;;;;;;;;;;;;;;-0.06;100.00;100469.97;4995811;28;19917;-61
2023/12/01 02:51:20;;;;;;;;;;;;;;;-0.07;100.00;100469.16;4999879;28;19921;-61
2023/12/01 02:53:45;;;;;;;;;;;;;;;-0.07;100.00;100470.94;5001223;28;19917;-62
2023/12/01 02:56:11;;;;;;;;;;;;;;;-0.09;100.00;100472.81;5002881;28;19917;-63
2023/12/01 02:58:36;;;;;;;;;;;;;;;-0.10;100.00;100473.75;5005326;28;19917;-61
2023/12/01 03:01:03;;;;;;;;;;;;;;;-0.11;100.00;100464.28;5003157;28;20008;-62
2023/12/01 03:03:28;;;;;;;;;;;;;;;-0.12;100.00;100470.44;5003436;28;19917;-62
2023/12/01 03:05:53;;;;;;;;;;;;;;;-0.16;100.00;100469.00;4999149;28;19970;-62
2023/12/01 03:08:18;;;;;;;;;;;;;;;-0.18;100.00;100471.72;5005005;28;19917;-61
2023/12/01 03:10:44;;;;;;;;;;;;;;;-0.17;100.00;100470.78;5004632;28;19914;-61
2023/12/01 03:13:09;;;;;;;;;;;;;;;-0.17;100.00;100464.72;4996083;28;19936;-62
2023/12/01 03:15:34;;;;;;;;;;;;;;;-0.19;100.00;100471.81;5001800;28;19928;-62
2023/12/01 03:17:59;;;;;;;;;;;;;;;-0.18;100.00;100468.28;4999696;28;20164;-61
2023/12/01 03:20:27;;;;;;;;;;;;;;;-0.18;100.00;100470.88;5003696;28;19918;-62
2023/12/01 03:22:53;;;;;;;;;;;;;;;-0.18;100.00;100468.28;5002554;28;19924;-61
2023/12/01 03:25:18;;;;;;;;;;;;;;;-0.17;100.00;100472.53;4997683;28;19922;-62
2023/12/01 03:27:47;;;;;;;;;;;;;;;-0.16;100.00;100476.81;5001067;28;19956;-61
2023/12/01 03:30:17;;;;;;;;;;;;;;;-0.16;100.00;100474.22;5001706;28;19928;-62
2023/12/01 03:32:44;;;;;;;;;;;;;;;-0.14;100.00;100480.16;5003176;28;19917;-62
2023/12/01 03:35:09;;;;;;;;;;;;;;;-0.12;100.00;100480.88;5003750;28;19921;-61
2023/12/01 03:37:34;;;;;;;;;;;;;;;-0.12;100.00;100475.66;5004685;28;19917;-61
2023/12/01 03:40:01;;;;;;;;;;;;;;;-0.16;100.00;100469.00;5006352;28;19927;-61
2023/12/01 03:42:26;;;;;;;;;;;;;;;-0.09;100.00;100483.25;5000388;28;19925;-62
2023/12/01 03:44:51;;;;;;;;;;;;;;;-0.10;100.00;100474.59;5004233;28;19921;-61
2023/12/01 03:47:16;;;;;;;;;;;;;;;-0.10;100.00;100478.97;5004897;28;20712;-61
2023/12/01 03:49:41;;;;;;;;;;;;;;;-0.10;100.00;100486.81;4999580;28;19914;-61
2023/12/01 03:52:08;;;;;;;;;;;;;;;-0.09;100.00;100480.66;5004935;28;19923;-61
2023/12/01 03:54:33;;;;;;;;;;;;;;;-0.11;100.00;100488.59;5003295;28;19932;-61
2023/12/01 03:56:59;;;;;;;;;;;;;;;-0.11;100.00;100490.38;5003136;28;19917;-61
2023/12/01 03:59:24;;;;;;;;;;;;;;;-0.11;100.00;100499.03;5003236;28;20268;-61
2023/12/01 04:01:50;;;;;;;;;;;;;;;-0.10;100.00;100494.63;5002557;28;19923;-61
2023/12/01 04:04:16;;;;;;;;;;;;;;;-0.09;100.00;100491.09;5005103;28;19913;-61
2023/12/01 04:06:42;;;;;;;;;;;;;;;-0.11;100.00;100498.19;5003738;28;19921;-62
2023/12/01 04:09:09;;;;;;;;;;;;;;;-0.15;100.00;100487.16;5003993;28;19917;-62
2023/12/01 04:11:34;;;;;;;;;;;;;;;-0.21;100.00;100495.44;5003502;28;19917;-61
2023/12/01 04:13:59;;;;;;;;;;;;;;;-0.22;100.00;100495.53;5004573;28;19924;-61
2023/12/01 04:16:25;;;;;;;;;;;;;;;-0.26;100.00;100494.94;5003800;28;20297;-61
2023/12/01 04:18:50;;;;;;;;;;;;;;;-0.31;100.00;100495.22;5004844;28;20410;-61
2023/12/01 04:21:16;;;;;;;;;;;;;;;-0.37;100.00;100493.06;5002319;28;20023;-61
2023/12/01 04:23:41;;;;;;;;;;;;;;;-0.44;100.00;100506.66;5004591;28;19913;-61
2023/12/01 04:26:06;;;;;;;;;;;;;;;-0.47;100.00;100507.72;5002862;28;19924;-62
2023/12/01 04:28:31;;;;;;;;;;;;;;;-0.46;100.00;100511.97;4997639;28;19920;-61
2023/12/01 04:30:57;;;;;;;;;;;;;;;-0.44;100.00;100512.72;4996746;28;20012;-61
2023/12/01 04:33:22;;;;;;;;;;;;;;;-0.43;100.00;100513.53;5004392;28;20021;-62
2023/12/01 04:35:47;;;;;;;;;;;;;;;-0.43;100.00;100524.81;5000316;28;19975;-61
2023/12/01 04:38:13;;;;;;;;;;;;;;;-0.42;100.00;100523.88;5003495;28;20015;-61
2023/12/01 04:40:38;;;;;;;;;;;;;;;-0.40;100.00;100529.81;5001525;28;20705;-61
2023/12/01 04:43:03;;;;;;;;;;;;;;;-0.37;100.00;100524.38;4997521;28;20478;-62
2023/12/01 04:45:32;;;;;;;;;;;;;;;-0.36;100.00;100531.25;5000755;28;19927;-61
2023/12/01 04:47:57;;;;;;;;;;;;;;;-0.33;100.00;100522.38;5003744;28;19913;-62
2023/12/01 04:50:24;;;;;;;;;;;;;;;-0.36;100.00;100539.06;4993599;28;19921;-62
2023/12/01 04:52:52;;;;;;;;;;;;;;;-0.36;100.00;100531.25;5003923;28;19913;-62
2023/12/01 04:55:18;;;;;;;;;;;;;;;-0.34;100.00;100539.81;5002805;28;19928;-63
2023/12/01 04:57:44;;;;;;;;;;;;;;;-0.34;100.00;100536.34;5003617;28;20302;-62
2023/12/01 05:00:20;;;;;;;;;;;;;;;-0.44;100.00;100544.00;5001462;28;20621;-62
2023/12/01 05:02:47;;;;;;;;;;;;;;;-0.54;100.00;100548.22;5001649;28;19913;-62
2023/12/01 05:05:12;;;;;;;;;;;;;;;-0.55;100.00;100556.97;5002751;28;19918;-62
2023/12/01 05:07:38;;;;;;;;;;;;;;;-0.54;100.00;100563.03;5001726;28;19924;-62
2023/12/01 05:10:08;;;;;;;;;;;;;;;-0.52;100.00;100561.13;4977387;28;19956;-62
2023/12/01 05:12:33;;;;;;;;;;;;;;;-0.52;100.00;100556.75;4997515;28;19925;-62
2023/12/01 05:14:59;;;;;;;;;;;;;;;-0.49;100.00;100566.13;5003361;28;20318;-62
2023/12/01 05:17:24;;;;;;;;;;;;;;;-0.47;100.00;100565.09;5003281;28;19933;-61
2023/12/01 05:19:49;;;;;;;;;;;;;;;-0.45;100.00;100562.38;5004172;28;19917;-62
2023/12/01 05:22:14;;;;;;;;;;;;;;;-0.45;100.00;100565.81;5001043;28;19929;-62
2023/12/01 05:24:39;;;;;;;;;;;;;;;-0.42;100.00;100570.81;5004310;28;20713;-62
2023/12/01 05:27:07;;;;;;;;;;;;;;;-0.39;100.00;100574.97;5000233;28;20017;-62
2023/12/01 05:29:35;;;;;;;;;;;;;;;-0.39;100.00;100573.22;5002028;28;19917;-62
2023/12/01 05:32:01;;;;;;;;;;;;;;;-0.37;100.00;100575.72;5002357;28;19918;-61
2023/12/01 05:34:26;;;;;;;;;;;;;;;-0.33;100.00;100579.75;4995807;28;19920;-62
2023/12/01 05:36:51;;;;;;;;;;;;;;;-0.33;100.00;100572.78;5003572;28;19964;-62
2023/12/01 05:39:16;;;;;;;;;;;;;;;-0.29;100.00;100580.38;5001206;28;19922;-62
2023/12/01 05:41:43;;;;;;;;;;;;;;;-0.28;100.00;100576.84;4999034;28;19924;-62
2023/12/01 05:44:08;;;;;;;;;;;;;;;-0.27;100.00;100573.31;4994681;28;20562;-62
2023/12/01 05:46:33;;;;;;;;;;;;;;;-0.25;100.00;100579.25;4996486;28;19921;-62
2023/12/01 05:49:02;;;;;;;;;;;;;;;-0.24;100.00;100580.91;4995514;28;19918;-62
2023/12/01 05:51:27;;;;;;;;;;;;;;;-0.22;100.00;100592.06;4997349;28;19917;-62
2023/12/01 05:53:53;;;;;;;;;;;;;;;-0.23;100.00;100590.41;5003455;28;20369;-62
2023/12/01 05:56:18;;;;;;;;;;;;;;;-0.21;100.00;100596.34;5003690;28;19917;-62
2023/12/01 05:58:43;;;;;;;;;;;;;;;-0.19;100.00;100599.69;5001365;28;20293;-62
2023/12/01 06:01:09;;;;;;;;;;;;;;;-0.15;100.00;100601.13;5001547;28;20382;-62
2023/12/01 06:03:34;;;;;;;;;;;;;;;-0.18;100.00;100601.34;5002869;28;19952;-62
2023/12/01 06:05:59;;;;;;;;;;;;;;;-0.18;100.00;100596.13;4997519;28;19957;-62
2023/12/01 06:08:24;;;;;;;;;;;;;;;-0.21;100.00;100597.19;5006260;28;19917;-62
2023/12/01 06:10:49;;;;;;;;;;;;;;;-0.24;100.00;100597.41;5003835;28;19994;-62
2023/12/01 06:13:15;;;;;;;;;;;;;;;-0.22;100.00;100595.53;5004783;28;20279;-62
2023/12/01 06:15:41;;;;;;;;;;;;;;;-0.20;100.00;100603.25;5005441;28;19964;-62
2023/12/01 06:18:07;;;;;;;;;;;;;;;-0.21;100.00;100597.19;5007096;28;19955;-62
2023/12/01 06:20:34;;;;;;;;;;;;;;;-0.21;100.00;100598.97;5004671;28;20298;-62
2023/12/01 06:23:00;;;;;;;;;;;;;;;-0.19;100.00;100603.13;5006751;28;20305;-62
2023/12/01 06:25:30;;;;;;;;;;;;;;;-0.20;100.00;100600.63;5001328;28;19923;-62
2023/12/01 06:27:57;;;;;;;;;;;;;;;-0.18;100.00;100601.34;5005717;28;19920;-62
2023/12/01 06:30:22;;;;;;;;;;;;;;;-0.23;100.00;100595.63;5005818;28;20421;-62
2023/12/01 06:32:48;;;;;;;;;;;;;;;-0.17;100.00;100610.84;5006752;28;19924;-62
2023/12/01 06:35:14;;;;;;;;;;;;;;;-0.14;100.00;100605.41;5005961;28;20012;-62
2023/12/01 06:37:39;;;;;;;;;;;;;;;-0.12;100.00;100603.53;5005977;28;19910;-63
2023/12/01 06:40:11;;;;;;;;;;;;;;;-0.10;100.00;100602.47;5004505;28;19913;-62
2023/12/01 06:42:37;;;;;;;;;;;;;;;-0.06;100.00;100605.69;5000904;28;19940;-61
2023/12/01 06:45:03;;;;;;;;;;;;;;;-0.04;100.00;100603.81;5003574;28;20027;-62
2023/12/01 06:47:28;;;;;;;;;;;;;;;-0.03;100.00;100602.88;5002719;28;19956;-61
2023/12/01 06:49:55;;;;;;;;;;;;;;;0.00;100.00;100607.91;4997711;28;19979;-62
2023/12/01 06:52:21;;;;;;;;;;;;;;;0.01;100.00;100612.19;4999965;28;19920;-62
2023/12/01 06:54:46;;;;;;;;;;;;;;;0.02;100.00;100613.84;5003776;28;19917;-62
2023/12/01 06:57:11;;;;;;;;;;;;;;;0.02;100.00;100624.28;5004071;28;19921;-62
2023/12/01 06:59:36;;;;;;;;;;;;;;;0.04;100.00;100617.19;5002673;28;19920;-62
2023/12/01 07:02:01;;;;;;;;;;;;;;;0.06;100.00;100619.69;5003696;28;19918;-62
2023/12/01 07:04:27;;;;;;;;;;;;;;;0.08;100.00;100625.63;5004744;28;19924;-62
2023/12/01 07:06:53;;;;;;;;;;;;;;;0.09;100.00;100627.28;5004734;28;19921;-62
2023/12/01 07:09:18;;;;;;;;;;;;;;;0.10;100.00;100636.78;5002112;28;20805;-62
2023/12/01 07:11:44;;;;;;;;;;;;;;;0.11;100.00;100630.63;5005818;28;19921;-62
2023/12/01 07:14:12;;;;;;;;;;;;;;;0.12;100.00;100634.91;5002450;28;20579;-62
2023/12/01 07:16:37;;;;;;;;;;;;;;;0.13;100.00;100647.00;5003761;28;19925;-62
2023/12/01 07:19:03;;;;;;;;;;;;;;;0.15;100.00;100639.91;4997870;28;19917;-62
2023/12/01 07:21:30;;;;;;;;;;;;;;;0.17;100.00;100648.47;5001263;28;19979;-62
2023/12/01 07:23:55;;;;;;;;;;;;;;;0.17;100.00;100638.84;5004191;28;20756;-62
2023/12/01 07:26:25;;;;;;;;;;;;;;;0.18;100.00;100644.91;5002485;28;19921;-62
2023/12/01 07:28:52;;;;;;;;;;;;;;;0.19;100.00;100650.00;5002859;28;20347;-62
2023/12/01 07:31:17;;;;;;;;;;;;;;;0.21;100.00;100650.75;4998914;28;19925;-62
2023/12/01 07:33:42;;;;;;;;;;;;;;;0.23;100.00;100648.00;5004378;28;20028;-62
2023/12/01 07:36:09;;;;;;;;;;;;;;;0.24;100.00;100649.69;5004482;28;19913;-62
2023/12/01 07:38:34;;;;;;;;;;;;;;;0.24;100.00;100641.84;5005478;28;19921;-62
2023/12/01 07:41:00;;;;;;;;;;;;;;;0.25;100.00;100649.56;5003552;28;19913;-61
2023/12/01 07:43:25;;;;;;;;;;;;;;;0.27;100.00;100650.28;5005928;28;20362;-61
2023/12/01 07:45:50;;;;;;;;;;;;;;;0.28;100.00;100653.75;5000383;28;19922;-61
2023/12/01 07:48:15;;;;;;;;;;;;;;;0.29;100.00;100651.06;5003565;28;19913;-62
2023/12/01 07:50:41;;;;;;;;;;;;;;;0.31;100.00;100648.31;4997930;28;19979;-61
2023/12/01 07:53:07;;;;;;;;;;;;;;;0.32;100.00;100650.00;5002817;28;19984;-61
2023/12/01 07:55:32;;;;;;;;;;;;;;;0.34;100.00;100647.28;4998284;28;19924;-62
2023/12/01 07:57:58;;;;;;;;;;;;;;;0.33;100.00;100645.59;5004421;28;19914;-62
2023/12/01 08:00:24;;;;;;;;;;;;;;;0.35;100.00;100651.56;4993583;28;19917;-62
2023/12/01 08:02:52;;;;;;;;;;;;;;;0.35;100.00;100646.31;5004275;28;19933;-61
2023/12/01 08:05:18;;;;;;;;;;;;;;;0.35;100.00;100647.16;5003729;28;19963;-62
2023/12/01 08:07:44;;;;;;;;;;;;;;;0.37;100.00;100647.06;5003357;28;20823;-61
2023/12/01 08:10:14;;;;;;;;;;;;;;;0.38;100.00;100651.31;5002138;28;19917;-62
2023/12/01 08:12:40;;;;;;;;;;;;;;;0.38;100.00;100643.50;5002552;28;19949;-61
2023/12/01 08:15:06;;;;;;;;;;;;;;;0.38;100.00;100656.56;5001001;28;20020;-61
2023/12/01 08:17:31;;;;;;;;;;;;;;;0.39;100.00;100653.00;5003671;28;19923;-62
2023/12/01 08:19:56;;;;;;;;;;;;;;;0.39;100.00;100660.81;5004889;28;19917;-61
2023/12/01 08:22:21;;;;;;;;;;;;;;;0.40;100.00;100665.09;4997318;28;19925;-62
2023/12/01 08:24:46;;;;;;;;;;;;;;;0.41;100.00;100666.78;5000470;28;19948;-62
2023/12/01 08:27:12;;;;;;;;;;;;;;;0.42;100.00;100663.22;4998580;28;19914;-61
2023/12/01 08:29:37;;;;;;;;;;;;;;;0.43;100.00;100667.50;5003040;28;19952;-62
2023/12/01 08:32:03;;;;;;;;;;;;;;;0.44;99.99;100675.22;4999078;28;19917;-61
2023/12/01 08:34:28;;;;;;;;;;;;;;;0.44;99.71;100680.44;5002817;28;20303;-61
2023/12/01 08:36:53;;;;;;;;;;;;;;;0.43;99.62;100676.16;5004813;28;19918;-62
2023/12/01 08:39:20;;;;;;;;;;;;;;;0.44;99.04;100677.84;5000560;28;19918;-62
2023/12/01 08:41:45;;;;;;;;;;;;;;;0.45;98.65;100681.28;5004844;28;20019;-62
2023/12/01 08:44:11;;;;;;;;;;;;;;;0.45;98.48;100678.66;5003011;28;19999;-62
2023/12/01 08:46:36;;;;;;;;;;;;;;;0.47;98.26;100688.06;5004285;28;19963;-61
2023/12/01 08:49:01;;;;;;;;;;;;;;;0.47;97.99;100693.28;4997497;28;20562;-62
2023/12/01 08:51:26;;;;;;;;;;;;;;;0.45;97.03;100689.13;5003151;28;19913;-61
2023/12/01 08:53:51;;;;;;;;;;;;;;;0.44;96.74;100688.28;5002108;28;20030;-62
2023/12/01 08:56:16;;;;;;;;;;;;;;;0.45;96.43;100691.72;4999353;28;19918;-62
2023/12/01 08:58:42;;;;;;;;;;;;;;;0.45;96.40;100694.34;5000984;28;19974;-62
2023/12/01 09:01:07;;;;;;;;;;;;;;;0.40;95.84;100699.06;5001693;28;19913;-62
2023/12/01 09:03:32;;;;;;;;;;;;;;;0.42;96.07;100699.78;5001383;28;19920;-62
2023/12/01 09:05:58;;;;;;;;;;;;;;;0.43;95.79;100698.84;4993333;28;19921;-62
2023/12/01 09:08:23;;;;;;;;;;;;;;;0.44;95.46;100697.91;4995791;28;20366;-62
2023/12/01 09:10:49;;;;;;;;;;;;;;;0.44;95.54;100701.34;4992310;28;19917;-61
2023/12/01 09:13:14;;;;;;;;;;;;;;;0.42;95.07;100698.00;4997009;28;19975;-61
2023/12/01 09:15:39;;;;;;;;;;;;;;;0.42;94.99;100703.25;4992663;28;19918;-61
2023/12/01 09:18:04;;;;;;;;;;;;;;;0.44;94.85;100706.56;4996529;28;20658;-62
2023/12/01 09:20:29;;;;;;;;;;;;;;;0.43;94.90;100704.91;4996584;28;19917;-61
2023/12/01 09:22:55;;;;;;;;;;;;;;;0.43;94.24;100704.91;4998395;28;19968;-60
2023/12/01 09:25:20;;;;;;;;;;;;;;;0.50;94.45;100706.13;5000331;28;20104;-61
2023/12/01 09:27:45;;;;;;;;;;;;;;;0.50;93.87;100710.53;5002971;28;19960;-61
2023/12/01 09:30:15;;;;;;;;;;;;;;;0.50;93.99;100715.75;5001385;28;19923;-61
2023/12/01 09:32:41;;;;;;;;;;;;;;;0.45;93.43;100718.69;5002972;28;19916;-61
2023/12/01 09:35:06;;;;;;;;;;;;;;;0.46;93.03;100729.97;5002799;28;19917;-61
2023/12/01 09:37:31;;;;;;;;;;;;;;;0.43;92.76;100727.56;5002093;28;19928;-61
2023/12/01 09:39:57;;;;;;;;;;;;;;;0.47;92.61;100732.47;4999910;28;20337;-61
2023/12/01 09:42:24;;;;;;;;;;;;;;;0.52;92.95;100729.53;5000231;28;20013;-60
2023/12/01 09:44:50;;;;;;;;;;;;;;;0.58;92.80;100727.34;5001728;28;19953;-60
2023/12/01 09:47:17;;;;;;;;;;;;;;;0.50;92.50;100728.81;5002327;28;19917;-61
2023/12/01 09:49:45;;;;;;;;;;;;;;;0.50;92.49;100740.09;5003279;28;19937;-60
2023/12/01 09:52:10;;;;;;;;;;;;;;;0.51;92.74;100740.94;5000484;28;19924;-61
2023/12/01 09:54:37;;;;;;;;;;;;;;;0.55;92.76;100734.53;4995990;28;20000;-61
2023/12/01 09:57:04;;;;;;;;;;;;;;;0.57;93.05;100737.88;5001322;28;19923;-61
2023/12/01 09:59:29;;;;;;;;;;;;;;;0.60;92.83;100738.50;5001510;28;20283;-61
2023/12/01 10:01:55;;;;;;;;;;;;;;;0.66;92.93;100741.63;5000578;28;19921;-60
2023/12/01 10:04:20;;;;;;;;;;;;;;;0.67;92.79;100741.53;5001561;28;19920;-60
2023/12/01 10:06:46;;;;;;;;;;;;;;;0.68;92.99;100745.81;5001701;28;19941;-61
2023/12/01 10:09:12;;;;;;;;;;;;;;;0.66;92.37;100732.00;5001088;28;20263;-62
2023/12/01 10:11:38;;;;;;;;;;;;;;;0.66;92.41;100745.06;5001438;28;20047;-61
2023/12/01 10:14:06;;;;;;;;;;;;;;;0.67;92.38;100745.91;5002644;28;20388;-61
2023/12/01 10:16:34;;;;;;;;;;;;;;;0.68;92.31;100744.97;4995185;28;19917;-61
2023/12/01 10:19:04;;;;;;;;;;;;;;;0.69;92.26;100737.00;5003686;28;19913;-60
2023/12/01 10:21:51;;;;;;;;;;;;;;;0.68;92.26;100735.34;5000665;28;19921;-61
2023/12/01 10:24:22;;;;;;;;;;;;;;;0.69;91.98;100744.84;5002929;28;19917;-60
2023/12/01 10:26:54;;;;;;;;;;;;;;;0.71;91.91;100734.28;4999363;28;19928;-60
2023/12/01 10:29:23;;;;;;;;;;;;;;;0.71;91.74;100742.13;4999835;28;20455;-61
2023/12/01 10:31:49;;;;;;;;;;;;;;;0.71;91.77;100740.34;4996997;28;19952;-61
2023/12/01 10:34:14;;;;;;;;;;;;;;;0.71;91.86;100739.50;4999275;28;20022;-61
2023/12/01 10:36:40;;;;;;;;;;;;;;;0.70;91.62;100746.53;5002767;28;19917;-61
2023/12/01 10:39:07;;;;;;;;;;;;;;;0.70;91.61;100745.69;5001593;28;20460;-61
2023/12/01 10:41:33;;;;;;;;;;;;;;;0.71;91.44;100742.13;4997733;28;19909;-60
2023/12/01 10:43:59;;;;;;;;;;;;;;;0.71;91.51;100737.75;5001865;28;19914;-61
2023/12/01 10:46:24;;;;;;;;;;;;;;;0.71;91.74;100742.97;4995683;28;20512;-61
2023/12/01 10:48:51;;;;;;;;;;;;;;;0.75;91.70;100738.34;4996751;28;19913;-61
2023/12/01 10:51:16;;;;;;;;;;;;;;;0.75;91.47;100747.03;5001161;28;20067;-61
2023/12/01 10:53:42;;;;;;;;;;;;;;;0.75;91.32;100739.19;4998631;28;20554;-61
2023/12/01 10:56:11;;;;;;;;;;;;;;;0.76;91.30;100734.78;5003507;28;19932;-61
2023/12/01 10:58:38;;;;;;;;;;;;;;;0.77;91.61;100732.06;5000327;28;19913;-62
2023/12/01 11:01:04;;;;;;;;;;;;;;;0.72;91.27;100736.78;5005174;28;19921;-61
2023/12/01 11:03:30;;;;;;;;;;;;;;;0.70;90.93;100740.47;5003628;28;19974;-61
2023/12/01 11:06:01;;;;;;;;;;;;;;;0.70;90.76;100738.69;5005482;28;19924;-61
2023/12/01 11:08:43;;;;;;;;;;;;;;;0.72;91.03;100734.19;5004741;28;19913;-61
2023/12/01 11:11:21;;;;;;;;;;;;;;;0.74;91.46;100729.69;5003697;28;19961;-61
2023/12/01 11:14:20;;;;;;;;;;;;;;;0.74;91.19;100727.06;5006611;28;19951;-61
2023/12/01 11:16:48;;;;;;;;;;;;;;;0.76;91.50;100730.41;4972854;28;19913;-61
2023/12/01 11:19:18;;;;;;;;;;;;;;;0.74;91.27;100727.06;5004621;28;19925;-61
2023/12/01 11:21:44;;;;;;;;;;;;;;;0.71;91.06;100735.13;5001184;28;19979;-61
2023/12/01 11:24:31;;;;;;;;;;;;;;;0.69;90.66;100731.78;5004912;28;19924;-61
2023/12/01 11:27:00;;;;;;;;;;;;;;;0.69;90.98;100736.19;4999734;28;19925;-61
2023/12/01 11:29:30;;;;;;;;;;;;;;;0.68;91.14;100739.75;4999901;28;19952;-61
2023/12/01 11:31:59;;;;;;;;;;;;;;;0.67;90.74;100738.06;5003688;28;20013;-61
2023/12/01 11:34:26;;;;;;;;;;;;;;;0.68;90.82;100737.97;5002115;28;19987;-61
2023/12/01 11:36:55;;;;;;;;;;;;;;;0.72;90.79;100742.03;5005199;28;20033;-61
2023/12/01 11:39:23;;;;;;;;;;;;;;;0.75;90.85;100738.34;5000911;28;19914;-61
2023/12/01 11:42:08;;;;;;;;;;;;;;;0.76;90.99;100735.63;4999382;28;20031;-62
2023/12/01 11:44:37;;;;;;;;;;;;;;;0.79;90.70;100742.41;4996177;28;19914;-61
2023/12/01 11:47:04;;;;;;;;;;;;;;;0.78;90.12;100746.81;4996243;28;19940;-61
2023/12/01 11:49:30;;;;;;;;;;;;;;;0.76;89.91;100745.25;5001318;28;19924;-61
2023/12/01 11:51:59;;;;;;;;;;;;;;;0.73;89.60;100740.25;5004059;28;19924;-61
2023/12/01 11:54:25;;;;;;;;;;;;;;;0.73;89.76;100743.69;5004678;28;19951;-61
2023/12/01 11:56:51;;;;;;;;;;;;;;;0.74;89.40;100747.13;5001475;28;19917;-61
2023/12/01 11:59:17;;;;;;;;;;;;;;;0.73;89.16;100748.91;5001258;28;19913;-62
2023/12/01 12:01:42;;;;;;;;;;;;;;;0.76;88.97;100755.69;5001929;28;19971;-62
2023/12/01 12:04:09;;;;;;;;;;;;;;;0.70;89.15;100756.97;5003230;28;19917;-61
2023/12/01 12:06:34;;;;;;;;;;;;;;;0.67;88.72;100751.97;5003475;28;19994;-61
2023/12/01 12:09:01;;;;;;;;;;;;;;;0.67;89.06;100757.19;5003885;28;20337;-61
2023/12/01 12:11:27;;;;;;;;;;;;;;;0.71;89.19;100749.97;5003299;28;20400;-62
2023/12/01 12:13:56;;;;;;;;;;;;;;;0.73;89.25;100759.38;5005968;28;19925;-61
2023/12/01 12:16:24;;;;;;;;;;;;;;;0.78;89.44;100759.88;4998506;28;19921;-61
2023/12/01 12:18:50;;;;;;;;;;;;;;;0.81;89.27;100758.81;5000920;28;19917;-61
2023/12/01 12:21:15;;;;;;;;;;;;;;;0.79;89.31;100756.31;5004097;28;19924;-61
2023/12/01 12:23:40;;;;;;;;;;;;;;;0.81;89.18;100762.25;5000858;28;19918;-62
2023/12/01 12:26:16;;;;;;;;;;;;;;;0.85;89.36;100771.53;5000151;28;19921;-61
2023/12/01 12:28:42;;;;;;;;;;;;;;;0.82;88.83;100773.56;5000108;28;19918;-61
2023/12/01 12:31:07;;;;;;;;;;;;;;;0.85;89.05;100771.53;5002449;28;20531;-61